Detall de PIREP

Printer-friendly versionPDF version

[2013/01/22 12:16:00]
Flight IATA:CT3233
Pilot Number:042
Company ICAO:CAT
Aircraft Type:B763/F
PAX:110
Departing Airport: LEMD
Destination Airport: LEPA
Alternate Airport:LEBL
Online: VATSIM
Route:NANDO UM871 GODOX
Flight Level:F340
No Slew and time accel
No pause
Crash detect
Detect pilot in Cockpit between each 30 and 45 minutes
12:16 Zero fuel Weight: 197000 Lbs, Fuel Weight: 143470 Lbs
12:16 VATSIM:LEMD 221200Z 32005KT 270V360 9999 -RA SCT012 03/02 Q1006 NOSIG
12:16 VATSIM:LEPA 221200Z 25020KT 9999 FEW040 SCT045 13/04 Q1010 NOSIG
12:16 VOICE CATALONIAN
12:22 Parking Brakes off
12:29 Take-off
12:29 Take off Weight: 338325 Lbs
12:29 Wind: 244º @ 009 Knots Heading: 144º
12:29 POS N40º 28´ 09´´ W003º 33´ 39´´
12:29 Gear Up: 185 Knots
12:29 Flaps:4 at 185 Knots
12:29 Flaps:3 at 219 Knots
12:30 Flaps:2 at 238 Knots
12:30 Flaps:1 at 243 Knots
12:30 Flaps:0 at 243 Knots
12:43 TOC
12:43 Fuel Weight: 134635 Lb
12:44 Wind:296º@086 Knots Heading: 105º Ground Speed: 543 Knots Altitude 33848 ft
12:59 Wind:301º@063 Knots Heading: 082º Ground Speed: 515 Knots Altitude 33877 ft
13:05 TOD
13:05 Fuel Weight: 130877 Lb
13:13 Flaps:1 at 249 Knots
13:14 Wind:309º@045 Knots Heading: 181º Ground Speed: 350 Knots Altitude 17854 ft
13:14 Flaps:2 at 244 Knots
13:17 Flaps:3 at 189 Knots
13:24 Gear Down: 166 Knots
13:24 Flaps:4 at 166 Knots
13:24 Flaps:5 at 166 Knots
13:25 Flaps:6 at 166 Knots
13:28 TouchDown:Rate -366 ft/min Speed: 110 Knots
13:28 VATSIM:LEPA 221300Z 26023KT 9999 FEW040 SCT045 13/05 Q1009 NOSIG
13:28 Land
13:28 Wind:232º@008 Knots
13:28 Heading: 240º
13:28 Flight Duration: 00:59
13:28 Landing Weight: 325248 Lbs
13:28 POS N39º 32´ 37´´ E002º 44´ 12´´
13:33 Parking brakes on
13:33 Block to Block Duration: 01:11
13:33 Final Fuel: 127264 Lbls
13:33 Spent Fuel: 16205 Lbls
13:33 Flight Length: 392 NM
13:33 TOD Land Length: 109 NM

Exportar CSV

Powered by Drupal - Modified by Danger4k